Archival Weather

Heathrow

London, United Kingdom (EGLL)

Report from: Friday, June 21, 2024 12:20 AM BST
Current time: Friday, July 19, 2024 4:00 AM BST

Current weather – Weather history – Daily summaries
Weather forecast

Temperature14.0°C (57.2°F)
Dew point10.0°C (50.0°F)
Winds 6 kts (3.1 m/s, 6.9 mph) East (100°)
Visibility6.2 mi. (10 km)
Clouds Sky clear
Altimeter30.03 in.Hg (1017 mB)
Relative humidity77 %
Density altitude-71 ft. (-22 m)
Remarks Fully automated report
No clouds detected
Flight conditions Visual Meteorological Conditions
Raw dataEGLL 202320Z AUTO 10006KT 9999 NCD 14/10 Q1017
An error has occurred. This application may no longer respond until reloaded. Reload 🗙